sensor_id;sensor_type;location;lat;lon;timestamp;pressure;altitude;pressure_sealevel;temperature;humidity
28267;BME280;15525;45.568;5.448;2023-02-21T00:02:38;98684.28;;;8.57;54.91
28267;BME280;15525;45.568;5.448;2023-02-21T00:05:23;98698.19;;;8.59;54.71
28267;BME280;15525;45.568;5.448;2023-02-21T00:08:06;98692.41;;;8.50;54.75
28267;BME280;15525;45.568;5.448;2023-02-21T00:10:50;98691.72;;;8.55;55.20
28267;BME280;15525;45.568;5.448;2023-02-21T00:13:36;98699.34;;;8.63;55.13
28267;BME280;15525;45.568;5.448;2023-02-21T00:16:20;98677.63;;;8.43;54.81
28267;BME280;15525;45.568;5.448;2023-02-21T00:19:04;98688.47;;;8.53;55.08
28267;BME280;15525;45.568;5.448;2023-02-21T00:21:49;98684.28;;;8.57;54.57
28267;BME280;15525;45.568;5.448;2023-02-21T00:24:33;98678.00;;;8.63;54.86
28267;BME280;15525;45.568;5.448;2023-02-21T00:27:17;98676.84;;;8.59;54.72
28267;BME280;15525;45.568;5.448;2023-02-21T00:30:01;98676.59;;;8.44;54.59
28267;BME280;15525;45.568;5.448;2023-02-21T00:32:45;98685.06;;;8.41;54.61
28267;BME280;15525;45.568;5.448;2023-02-21T00:35:29;98663.31;;;8.32;54.97
28267;BME280;15525;45.568;5.448;2023-02-21T00:38:13;98664.69;;;8.35;55.09
28267;BME280;15525;45.568;5.448;2023-02-21T00:40:57;98667.59;;;8.33;54.62
28267;BME280;15525;45.568;5.448;2023-02-21T00:43:41;98677.53;;;8.38;54.89
28267;BME280;15525;45.568;5.448;2023-02-21T00:46:24;98677.00;;;8.52;54.65
28267;BME280;15525;45.568;5.448;2023-02-21T00:49:09;98669.06;;;8.41;54.73
28267;BME280;15525;45.568;5.448;2023-02-21T00:51:53;98660.16;;;8.35;54.78
28267;BME280;15525;45.568;5.448;2023-02-21T00:54:37;98668.22;;;8.40;54.65
28267;BME280;15525;45.568;5.448;2023-02-21T00:57:21;98662.72;;;8.30;55.00
28267;BME280;15525;45.568;5.448;2023-02-21T01:00:22;98673.63;;;8.29;55.49
28267;BME280;15525;45.568;5.448;2023-02-21T01:03:07;98666.13;;;8.26;55.36
28267;BME280;15525;45.568;5.448;2023-02-21T01:05:52;98677.19;;;8.34;55.29
28267;BME280;15525;45.568;5.448;2023-02-21T01:08:40;98658.69;;;8.16;55.83
28267;BME280;15525;45.568;5.448;2023-02-21T01:11:23;98664.84;;;8.28;55.28
28267;BME280;15525;45.568;5.448;2023-02-21T01:14:07;98662.88;;;8.24;55.72
28267;BME280;15525;45.568;5.448;2023-02-21T01:16:51;98654.75;;;8.19;55.21
28267;BME280;15525;45.568;5.448;2023-02-21T01:19:35;98658.22;;;8.31;55.43
28267;BME280;15525;45.568;5.448;2023-02-21T01:22:19;98655.53;;;8.31;55.55
28267;BME280;15525;45.568;5.448;2023-02-21T01:25:03;98663.97;;;8.39;54.96
28267;BME280;15525;45.568;5.448;2023-02-21T01:27:47;98663.53;;;8.31;55.33
28267;BME280;15525;45.568;5.448;2023-02-21T01:30:31;98643.75;;;8.15;55.73
28267;BME280;15525;45.568;5.448;2023-02-21T01:33:15;98653.50;;;8.21;55.43
28267;BME280;15525;45.568;5.448;2023-02-21T01:35:59;98658.59;;;8.11;56.02
28267;BME280;15525;45.568;5.448;2023-02-21T01:38:43;98650.75;;;8.05;56.29
28267;BME280;15525;45.568;5.448;2023-02-21T01:41:27;98660.00;;;8.14;55.98
28267;BME280;15525;45.568;5.448;2023-02-21T01:44:34;98660.44;;;8.11;57.29
28267;BME280;15525;45.568;5.448;2023-02-21T01:47:19;98643.84;;;7.92;56.33
28267;BME280;15525;45.568;5.448;2023-02-21T01:53:01;98652.91;;;7.91;56.69
28267;BME280;15525;45.568;5.448;2023-02-21T01:55:45;98650.72;;;7.77;56.90
28267;BME280;15525;45.568;5.448;2023-02-21T01:58:30;98659.56;;;8.05;57.65
28267;BME280;15525;45.568;5.448;2023-02-21T02:01:24;98655.53;;;8.03;57.49
28267;BME280;15525;45.568;5.448;2023-02-21T02:04:10;98644.63;;;7.93;55.93
28267;BME280;15525;45.568;5.448;2023-02-21T02:06:54;98648.44;;;7.97;55.82
28267;BME280;15525;45.568;5.448;2023-02-21T02:09:39;98649.78;;;8.11;57.21
28267;BME280;15525;45.568;5.448;2023-02-21T02:12:45;98660.31;;;7.89;56.51
28267;BME280;15525;45.568;5.448;2023-02-21T02:27:02;98645.31;;;8.00;56.53
28267;BME280;15525;45.568;5.448;2023-02-21T02:32:56;98631.91;;;7.95;56.91
28267;BME280;15525;45.568;5.448;2023-02-21T02:35:46;98647.75;;;8.01;56.51
28267;BME280;15525;45.568;5.448;2023-02-21T02:44:14;98628.00;;;7.86;56.47
28267;BME280;15525;45.568;5.448;2023-02-21T02:46:46;98639.94;;;7.83;56.67
28267;BME280;15525;45.568;5.448;2023-02-21T02:49:20;98650.59;;;7.83;57.03
28267;BME280;15525;45.568;5.448;2023-02-21T02:51:47;98629.88;;;7.74;56.25
28267;BME280;15525;45.568;5.448;2023-02-21T02:54:12;98612.66;;;7.53;56.62
28267;BME280;15525;45.568;5.448;2023-02-21T02:56:38;98637.53;;;7.70;57.04
28267;BME280;15525;45.568;5.448;2023-02-21T02:59:09;98636.16;;;7.68;57.46
28267;BME280;15525;45.568;5.448;2023-02-21T03:13:11;98631.28;;;7.65;57.65
28267;BME280;15525;45.568;5.448;2023-02-21T03:15:45;98620.63;;;7.65;57.36
28267;BME280;15525;45.568;5.448;2023-02-21T03:20:57;98625.41;;;7.63;56.90
28267;BME280;15525;45.568;5.448;2023-02-21T03:23:27;98597.78;;;7.41;57.10
28267;BME280;15525;45.568;5.448;2023-02-21T03:25:56;98633.09;;;7.48;57.15
28267;BME280;15525;45.568;5.448;2023-02-21T03:28:24;98579.28;;;7.23;57.18
28267;BME280;15525;45.568;5.448;2023-02-21T03:30:52;98581.25;;;7.27;57.64
28267;BME280;15525;45.568;5.448;2023-02-21T03:33:20;98626.91;;;7.59;57.28
28267;BME280;15525;45.568;5.448;2023-02-21T03:35:46;98615.09;;;7.55;57.32
28267;BME280;15525;45.568;5.448;2023-02-21T03:38:12;98609.78;;;7.55;56.98
28267;BME280;15525;45.568;5.448;2023-02-21T03:40:37;98605.31;;;7.44;57.11
28267;BME280;15525;45.568;5.448;2023-02-21T03:43:04;98625.19;;;7.53;56.90
28267;BME280;15525;45.568;5.448;2023-02-21T03:45:35;98613.88;;;7.34;57.95
28267;BME280;15525;45.568;5.448;2023-02-21T03:48:01;98621.88;;;7.34;58.20
28267;BME280;15525;45.568;5.448;2023-02-21T03:50:26;98608.09;;;7.37;57.47
28267;BME280;15525;45.568;5.448;2023-02-21T03:52:52;98617.34;;;7.46;57.51
28267;BME280;15525;45.568;5.448;2023-02-21T03:55:18;98608.84;;;7.49;57.55
28267;BME280;15525;45.568;5.448;2023-02-21T03:57:45;98612.34;;;7.50;57.85
28267;BME280;15525;45.568;5.448;2023-02-21T04:00:11;98603.91;;;7.41;57.53
28267;BME280;15525;45.568;5.448;2023-02-21T04:02:37;98595.00;;;7.36;57.58
28267;BME280;15525;45.568;5.448;2023-02-21T04:05:03;98585.31;;;7.30;57.48
28267;BME280;15525;45.568;5.448;2023-02-21T04:07:28;98585.31;;;7.30;57.67
28267;BME280;15525;45.568;5.448;2023-02-21T04:09:54;98623.69;;;7.45;57.91
28267;BME280;15525;45.568;5.448;2023-02-21T04:12:19;98603.22;;;7.34;57.47
28267;BME280;15525;45.568;5.448;2023-02-21T04:14:44;98611.94;;;7.30;58.29
28267;BME280;15525;45.568;5.448;2023-02-21T04:17:10;98599.41;;;7.30;58.18
28267;BME280;15525;45.568;5.448;2023-02-21T04:19:35;98586.91;;;7.31;57.95
28267;BME280;15525;45.568;5.448;2023-02-21T04:22:01;98610.97;;;7.47;57.89
28267;BME280;15525;45.568;5.448;2023-02-21T04:24:27;98596.16;;;7.40;57.51
28267;BME280;15525;45.568;5.448;2023-02-21T04:26:52;98595.69;;;7.31;57.87
28267;BME280;15525;45.568;5.448;2023-02-21T04:29:18;98574.22;;;7.10;58.33
28267;BME280;15525;45.568;5.448;2023-02-21T04:31:44;98578.59;;;7.27;57.77
28267;BME280;15525;45.568;5.448;2023-02-21T04:34:09;98608.63;;;7.51;57.68
28267;BME280;15525;45.568;5.448;2023-02-21T04:36:34;98605.41;;;7.49;57.76
28267;BME280;15525;45.568;5.448;2023-02-21T04:39:02;98579.84;;;7.36;57.47
28267;BME280;15525;45.568;5.448;2023-02-21T04:41:28;98562.63;;;7.27;57.21
28267;BME280;15525;45.568;5.448;2023-02-21T04:43:53;98585.03;;;7.43;57.62
28267;BME280;15525;45.568;5.448;2023-02-21T04:46:19;98576.81;;;7.33;57.55
28267;BME280;15525;45.568;5.448;2023-02-21T04:48:46;98591.06;;;7.38;57.78
28267;BME280;15525;45.568;5.448;2023-02-21T04:51:13;98585.63;;;7.33;57.83
28267;BME280;15525;45.568;5.448;2023-02-21T04:53:38;98575.31;;;7.37;57.48
28267;BME280;15525;45.568;5.448;2023-02-21T04:56:04;98585.47;;;7.51;57.38
28267;BME280;15525;45.568;5.448;2023-02-21T04:58:30;98587.91;;;7.53;57.62
28267;BME280;15525;45.568;5.448;2023-02-21T05:00:55;98548.50;;;7.27;57.37
28267;BME280;15525;45.568;5.448;2023-02-21T05:03:21;98579.69;;;7.43;57.27
28267;BME280;15525;45.568;5.448;2023-02-21T05:05:48;98563.41;;;7.28;57.57
28267;BME280;15525;45.568;5.448;2023-02-21T05:08:13;98575.31;;;7.37;57.75
28267;BME280;15525;45.568;5.448;2023-02-21T05:10:39;98565.72;;;7.36;57.72
28267;BME280;15525;45.568;5.448;2023-02-21T05:13:04;98573.34;;;7.44;57.50
28267;BME280;15525;45.568;5.448;2023-02-21T05:15:29;98561.09;;;7.31;57.82
28267;BME280;15525;45.568;5.448;2023-02-21T05:17:55;98577.63;;;7.45;57.76
28267;BME280;15525;45.568;5.448;2023-02-21T05:20:20;98495.44;;;6.97;57.45
28267;BME280;15525;45.568;5.448;2023-02-21T05:22:47;98547.13;;;7.24;57.65
28267;BME280;15525;45.568;5.448;2023-02-21T05:25:21;98552.34;;;7.19;57.81
28267;BME280;15525;45.568;5.448;2023-02-21T05:27:47;98552.78;;;7.16;57.84
28267;BME280;15525;45.568;5.448;2023-02-21T05:30:14;98554.28;;;7.24;58.04
28267;BME280;15525;45.568;5.448;2023-02-21T05:32:39;98555.44;;;7.28;57.96
28267;BME280;15525;45.568;5.448;2023-02-21T05:35:05;98555.09;;;7.24;57.72
28267;BME280;15525;45.568;5.448;2023-02-21T05:37:31;98541.22;;;7.11;58.14
28267;BME280;15525;45.568;5.448;2023-02-21T05:39:57;98531.16;;;7.13;58.07
28267;BME280;15525;45.568;5.448;2023-02-21T05:42:22;98553.63;;;7.17;58.21
28267;BME280;15525;45.568;5.448;2023-02-21T05:44:47;98526.53;;;7.08;58.24
28267;BME280;15525;45.568;5.448;2023-02-21T05:47:14;98544.69;;;7.23;57.66
28267;BME280;15525;45.568;5.448;2023-02-21T05:49:40;98548.28;;;7.17;57.88
28267;BME280;15525;45.568;5.448;2023-02-21T05:52:06;98530.72;;;7.04;58.25
28267;BME280;15525;45.568;5.448;2023-02-21T05:54:32;98553.03;;;7.03;58.33
28267;BME280;15525;45.568;5.448;2023-02-21T05:56:58;98535.25;;;6.92;58.44
28267;BME280;15525;45.568;5.448;2023-02-21T05:59:23;98542.53;;;6.97;58.80
28267;BME280;15525;45.568;5.448;2023-02-21T06:01:50;98548.53;;;7.04;58.82
28267;BME280;15525;45.568;5.448;2023-02-21T06:04:16;98532.47;;;6.99;58.09
28267;BME280;15525;45.568;5.448;2023-02-21T06:06:42;98550.38;;;7.15;58.45
28267;BME280;15525;45.568;5.448;2023-02-21T06:09:07;98520.69;;;6.95;58.29
28267;BME280;15525;45.568;5.448;2023-02-21T06:11:35;98531.97;;;7.02;58.24
28267;BME280;15525;45.568;5.448;2023-02-21T06:14:03;98532.56;;;7.04;58.49
28267;BME280;15525;45.568;5.448;2023-02-21T06:16:33;98530.84;;;7.09;58.16
28267;BME280;15525;45.568;5.448;2023-02-21T06:18:59;98499.50;;;7.00;57.89
28267;BME280;15525;45.568;5.448;2023-02-21T06:21:25;98504.69;;;7.06;57.71
28267;BME280;15525;45.568;5.448;2023-02-21T06:23:51;98524.22;;;7.12;58.00
28267;BME280;15525;45.568;5.448;2023-02-21T06:26:17;98540.19;;;7.23;58.22
28267;BME280;15525;45.568;5.448;2023-02-21T06:28:43;98514.50;;;7.06;58.24
28267;BME280;15525;45.568;5.448;2023-02-21T06:31:08;98506.78;;;6.93;58.28
28267;BME280;15525;45.568;5.448;2023-02-21T06:33:34;98516.59;;;7.04;57.79
28267;BME280;15525;45.568;5.448;2023-02-21T06:36:07;98531.75;;;7.03;57.94
28267;BME280;15525;45.568;5.448;2023-02-21T06:38:33;98525.63;;;7.03;57.94
28267;BME280;15525;45.568;5.448;2023-02-21T06:40:59;98531.09;;;6.96;57.77
28267;BME280;15525;45.568;5.448;2023-02-21T06:43:25;98525.88;;;6.90;58.34
28267;BME280;15525;45.568;5.448;2023-02-21T06:45:50;98510.16;;;6.88;58.23
28267;BME280;15525;45.568;5.448;2023-02-21T06:48:16;98520.09;;;6.93;58.53
28267;BME280;15525;45.568;5.448;2023-02-21T06:50:42;98511.75;;;6.89;58.17
28267;BME280;15525;45.568;5.448;2023-02-21T06:53:08;98524.00;;;7.02;57.95
28267;BME280;15525;45.568;5.448;2023-02-21T06:55:33;98516.84;;;7.02;57.84
28267;BME280;15525;45.568;5.448;2023-02-21T06:57:58;98519.50;;;7.02;58.15
28267;BME280;15525;45.568;5.448;2023-02-21T07:00:24;98481.25;;;6.80;58.25
28267;BME280;15525;45.568;5.448;2023-02-21T07:02:51;98513.50;;;7.07;58.48
28267;BME280;15525;45.568;5.448;2023-02-21T07:05:17;98512.44;;;7.08;58.37
28267;BME280;15525;45.568;5.448;2023-02-21T07:07:42;98526.19;;;7.16;58.21
28267;BME280;15525;45.568;5.448;2023-02-21T07:10:08;98521.28;;;7.25;58.10
28267;BME280;15525;45.568;5.448;2023-02-21T07:12:34;98513.97;;;7.32;57.89
28267;BME280;15525;45.568;5.448;2023-02-21T07:14:59;98536.41;;;7.47;57.72
28267;BME280;15525;45.568;5.448;2023-02-21T07:17:24;98539.97;;;7.53;57.94
28267;BME280;15525;45.568;5.448;2023-02-21T07:19:50;98517.44;;;7.44;57.73
28267;BME280;15525;45.568;5.448;2023-02-21T07:22:15;98536.69;;;7.62;58.01
28267;BME280;15525;45.568;5.448;2023-02-21T07:24:41;98519.63;;;7.63;57.78
28267;BME280;15525;45.568;5.448;2023-02-21T07:27:06;98509.34;;;7.67;58.11
28267;BME280;15525;45.568;5.448;2023-02-21T07:29:31;98523.00;;;7.87;58.01
28267;BME280;15525;45.568;5.448;2023-02-21T07:31:57;98543.97;;;8.11;57.81
28267;BME280;15525;45.568;5.448;2023-02-21T07:34:22;98536.75;;;8.23;57.04
28267;BME280;15525;45.568;5.448;2023-02-21T07:36:49;98538.06;;;8.37;57.02
28267;BME280;15525;45.568;5.448;2023-02-21T07:39:14;98512.75;;;8.40;56.52
28267;BME280;15525;45.568;5.448;2023-02-21T07:41:40;98530.66;;;8.61;56.41
28267;BME280;15525;45.568;5.448;2023-02-21T07:44:05;98514.72;;;8.66;56.52
28267;BME280;15525;45.568;5.448;2023-02-21T07:46:32;98520.59;;;8.84;56.79
28267;BME280;15525;45.568;5.448;2023-02-21T07:48:59;98524.00;;;8.96;56.12
28267;BME280;15525;45.568;5.448;2023-02-21T07:51:30;98531.44;;;9.16;56.94
28267;BME280;15525;45.568;5.448;2023-02-21T07:53:56;98515.47;;;9.21;55.79
28267;BME280;15525;45.568;5.448;2023-02-21T07:56:22;98536.91;;;9.47;56.26
28267;BME280;15525;45.568;5.448;2023-02-21T07:58:48;98527.75;;;9.65;56.64
28267;BME280;15525;45.568;5.448;2023-02-21T08:01:14;98527.66;;;9.81;56.07
28267;BME280;15525;45.568;5.448;2023-02-21T08:03:40;98511.38;;;9.83;55.54
28267;BME280;15525;45.568;5.448;2023-02-21T08:06:07;98522.22;;;9.98;55.83
28267;BME280;15525;45.568;5.448;2023-02-21T08:08:33;98515.97;;;10.14;56.15
28267;BME280;15525;45.568;5.448;2023-02-21T08:10:58;98518.00;;;10.33;55.41
28267;BME280;15525;45.568;5.448;2023-02-21T08:13:23;98511.94;;;10.43;55.77
28267;BME280;15525;45.568;5.448;2023-02-21T08:15:49;98462.09;;;10.32;55.34
28267;BME280;15525;45.568;5.448;2023-02-21T08:18:17;98489.38;;;10.70;55.79
28267;BME280;15525;45.568;5.448;2023-02-21T08:20:45;98528.75;;;11.21;54.98
28267;BME280;15525;45.568;5.448;2023-02-21T08:23:10;98504.69;;;11.36;55.13
28267;BME280;15525;45.568;5.448;2023-02-21T08:25:36;98493.28;;;11.61;54.44
28267;BME280;15525;45.568;5.448;2023-02-21T08:28:01;98509.97;;;11.88;54.24
28267;BME280;15525;45.568;5.448;2023-02-21T08:30:27;98515.09;;;12.15;54.11
28267;BME280;15525;45.568;5.448;2023-02-21T08:32:52;98509.19;;;12.33;54.43
28267;BME280;15525;45.568;5.448;2023-02-21T08:35:19;98499.81;;;12.40;54.08
28267;BME280;15525;45.568;5.448;2023-02-21T08:37:46;98505.16;;;12.65;53.86
28267;BME280;15525;45.568;5.448;2023-02-21T08:40:12;98484.44;;;12.86;53.78
28267;BME280;15525;45.568;5.448;2023-02-21T08:42:38;98484.38;;;13.11;53.86
28267;BME280;15525;45.568;5.448;2023-02-21T08:45:04;98504.16;;;13.45;53.47
28267;BME280;15525;45.568;5.448;2023-02-21T08:47:33;98505.13;;;13.69;53.64
28267;BME280;15525;45.568;5.448;2023-02-21T08:49:59;98472.25;;;13.72;53.20
28267;BME280;15525;45.568;5.448;2023-02-21T08:52:24;98479.97;;;13.88;52.69
28267;BME280;15525;45.568;5.448;2023-02-21T08:54:50;98452.25;;;13.88;52.93
28267;BME280;15525;45.568;5.448;2023-02-21T08:57:15;98478.38;;;14.26;52.72
28267;BME280;15525;45.568;5.448;2023-02-21T08:59:41;98492.78;;;14.40;52.59
28267;BME280;15525;45.568;5.448;2023-02-21T09:02:25;98480.84;;;14.51;53.66
28267;BME280;15525;45.568;5.448;2023-02-21T09:04:51;98485.44;;;14.79;53.05
28267;BME280;15525;45.568;5.448;2023-02-21T09:07:19;98483.94;;;14.91;52.82
28267;BME280;15525;45.568;5.448;2023-02-21T09:09:45;98477.69;;;15.19;52.21
28267;BME280;15525;45.568;5.448;2023-02-21T09:12:11;98476.13;;;15.42;51.57
28267;BME280;15525;45.568;5.448;2023-02-21T09:14:38;98475.25;;;15.65;51.90
28267;BME280;15525;45.568;5.448;2023-02-21T09:17:05;98476.16;;;15.79;51.37
28267;BME280;15525;45.568;5.448;2023-02-21T09:19:31;98477.69;;;16.03;50.86
28267;BME280;15525;45.568;5.448;2023-02-21T09:21:57;98472.41;;;16.12;51.04
28267;BME280;15525;45.568;5.448;2023-02-21T09:24:26;98461.38;;;16.08;50.22
28267;BME280;15525;45.568;5.448;2023-02-21T09:26:56;98471.28;;;16.13;50.60
28267;BME280;15525;45.568;5.448;2023-02-21T09:29:29;98459.00;;;16.20;49.96
28267;BME280;15525;45.568;5.448;2023-02-21T09:31:55;98454.16;;;16.36;49.90
28267;BME280;15525;45.568;5.448;2023-02-21T09:34:20;98448.75;;;16.54;49.66
28267;BME280;15525;45.568;5.448;2023-02-21T09:36:47;98431.34;;;16.74;49.93
28267;BME280;15525;45.568;5.448;2023-02-21T09:39:13;98451.00;;;16.93;48.87
28267;BME280;15525;45.568;5.448;2023-02-21T09:41:39;98430.78;;;16.90;48.98
28267;BME280;15525;45.568;5.448;2023-02-21T09:44:20;98432.47;;;17.13;47.79
28267;BME280;15525;45.568;5.448;2023-02-21T09:46:52;98434.56;;;17.43;47.63
28267;BME280;15525;45.568;5.448;2023-02-21T09:49:28;98430.84;;;17.53;47.04
28267;BME280;15525;45.568;5.448;2023-02-21T09:51:55;98423.50;;;17.53;48.00
28267;BME280;15525;45.568;5.448;2023-02-21T09:54:32;98442.50;;;17.89;47.05
28267;BME280;15525;45.568;5.448;2023-02-21T09:57:01;98442.50;;;17.89;46.53
28267;BME280;15525;45.568;5.448;2023-02-21T09:59:28;98434.50;;;17.84;47.04
28267;BME280;15525;45.568;5.448;2023-02-21T10:08:12;98429.88;;;18.06;44.99
28267;BME280;15525;45.568;5.448;2023-02-21T10:10:44;98420.38;;;18.17;45.66
28267;BME280;15525;45.568;5.448;2023-02-21T10:16:16;98403.94;;;17.92;45.54
28267;BME280;15525;45.568;5.448;2023-02-21T10:21:40;98405.81;;;18.57;44.68
28267;BME280;15525;45.568;5.448;2023-02-21T10:24:23;98399.91;;;18.94;43.57
28267;BME280;15525;45.568;5.448;2023-02-21T10:27:03;98400.75;;;19.03;43.67
28267;BME280;15525;45.568;5.448;2023-02-21T10:29:55;98396.97;;;19.13;43.42
28267;BME280;15525;45.568;5.448;2023-02-21T10:32:22;98389.06;;;19.33;44.31
28267;BME280;15525;45.568;5.448;2023-02-21T10:34:49;98396.72;;;19.57;43.88
28267;BME280;15525;45.568;5.448;2023-02-21T10:39:55;98394.66;;;19.45;43.33
28267;BME280;15525;45.568;5.448;2023-02-21T10:42:43;98393.88;;;19.45;42.84
28267;BME280;15525;45.568;5.448;2023-02-21T10:45:11;98391.63;;;19.38;44.14
28267;BME280;15525;45.568;5.448;2023-02-21T10:50:08;98382.22;;;19.61;43.56
28267;BME280;15525;45.568;5.448;2023-02-21T10:52:47;98380.78;;;19.89;42.05
28267;BME280;15525;45.568;5.448;2023-02-21T10:55:21;98377.09;;;19.85;42.31
28267;BME280;15525;45.568;5.448;2023-02-21T10:57:55;98348.78;;;20.03;41.66
28267;BME280;15525;45.568;5.448;2023-02-21T11:00:31;98369.38;;;20.38;41.42
28267;BME280;15525;45.568;5.448;2023-02-21T11:03:26;98363.94;;;20.38;40.25
28267;BME280;15525;45.568;5.448;2023-02-21T11:05:54;98363.28;;;20.33;41.88
28267;BME280;15525;45.568;5.448;2023-02-21T11:08:35;98355.44;;;20.40;40.61
28267;BME280;15525;45.568;5.448;2023-02-21T11:11:02;98345.03;;;20.42;42.12
28267;BME280;15525;45.568;5.448;2023-02-21T11:13:28;98348.72;;;20.37;42.01
28267;BME280;15525;45.568;5.448;2023-02-21T11:16:09;98346.44;;;20.85;40.19
28267;BME280;15525;45.568;5.448;2023-02-21T11:18:35;98327.25;;;20.44;41.72
28267;BME280;15525;45.568;5.448;2023-02-21T11:21:13;98339.97;;;20.23;41.02
28267;BME280;15525;45.568;5.448;2023-02-21T11:24:06;98333.50;;;20.82;40.36
28267;BME280;15525;45.568;5.448;2023-02-21T11:26:51;98322.34;;;21.05;39.69
28267;BME280;15525;45.568;5.448;2023-02-21T11:29:21;98313.22;;;21.30;40.11
28267;BME280;15525;45.568;5.448;2023-02-21T11:31:50;98310.22;;;21.43;40.40
28267;BME280;15525;45.568;5.448;2023-02-21T11:34:17;98314.41;;;21.41;40.17
28267;BME280;15525;45.568;5.448;2023-02-21T11:36:45;98309.28;;;21.60;39.81
28267;BME280;15525;45.568;5.448;2023-02-21T11:39:33;98318.81;;;21.74;38.27
28267;BME280;15525;45.568;5.448;2023-02-21T11:42:00;98303.56;;;22.06;39.46
28267;BME280;15525;45.568;5.448;2023-02-21T11:44:41;98283.66;;;21.93;37.61
28267;BME280;15525;45.568;5.448;2023-02-21T11:47:22;98282.75;;;21.89;38.24
28267;BME280;15525;45.568;5.448;2023-02-21T11:50:00;98291.81;;;22.26;37.72
28267;BME280;15525;45.568;5.448;2023-02-21T11:52:39;98290.97;;;22.01;37.41
28267;BME280;15525;45.568;5.448;2023-02-21T11:55:18;98274.41;;;21.74;37.97
28267;BME280;15525;45.568;5.448;2023-02-21T11:57:51;98282.16;;;21.84;38.81
28267;BME280;15525;45.568;5.448;2023-02-21T12:00:38;98274.50;;;22.10;38.42
28267;BME280;15525;45.568;5.448;2023-02-21T12:05:52;98255.47;;;22.82;38.05
28267;BME280;15525;45.568;5.448;2023-02-21T12:08:38;98254.53;;;23.02;36.26
28267;BME280;15525;45.568;5.448;2023-02-21T12:16:33;98247.53;;;21.84;37.68
28267;BME280;15525;45.568;5.448;2023-02-21T12:33:31;98216.59;;;23.12;35.31
28267;BME280;15525;45.568;5.448;2023-02-21T12:36:12;98201.56;;;23.30;35.62
28267;BME280;15525;45.568;5.448;2023-02-21T12:38:53;98196.53;;;23.32;35.54
28267;BME280;15525;45.568;5.448;2023-02-21T12:44:57;98202.84;;;23.48;34.46
28267;BME280;15525;45.568;5.448;2023-02-21T12:47:41;98197.66;;;23.59;34.89
28267;BME280;15525;45.568;5.448;2023-02-21T12:50:15;98199.81;;;23.38;34.74
28267;BME280;15525;45.568;5.448;2023-02-21T12:53:02;98194.34;;;22.98;36.45
28267;BME280;15525;45.568;5.448;2023-02-21T12:55:43;98186.09;;;22.71;35.71
28267;BME280;15525;45.568;5.448;2023-02-21T13:00:44;98183.59;;;21.94;37.26
28267;BME280;15525;45.568;5.448;2023-02-21T13:05:46;98175.41;;;22.30;37.00
28267;BME280;15525;45.568;5.448;2023-02-21T13:11:32;98160.03;;;22.85;36.04
28267;BME280;15525;45.568;5.448;2023-02-21T13:14:00;98158.84;;;22.35;36.77
28267;BME280;15525;45.568;5.448;2023-02-21T13:16:27;98166.88;;;21.83;37.26
28267;BME280;15525;45.568;5.448;2023-02-21T13:19:05;98158.13;;;21.78;37.07
28267;BME280;15525;45.568;5.448;2023-02-21T13:24:36;98152.66;;;21.78;37.15
28267;BME280;15525;45.568;5.448;2023-02-21T13:32:39;98138.94;;;22.22;37.22
28267;BME280;15525;45.568;5.448;2023-02-21T13:35:07;98132.50;;;22.03;37.29
28267;BME280;15525;45.568;5.448;2023-02-21T13:37:34;98133.16;;;22.36;37.36
28267;BME280;15525;45.568;5.448;2023-02-21T13:40:30;98134.88;;;22.16;37.21
28267;BME280;15525;45.568;5.448;2023-02-21T13:43:23;98109.06;;;22.26;37.06
28267;BME280;15525;45.568;5.448;2023-02-21T13:45:47;98109.19;;;23.08;36.22
28267;BME280;15525;45.568;5.448;2023-02-21T13:48:23;98113.72;;;23.75;35.22
28267;BME280;15525;45.568;5.448;2023-02-21T13:50:55;98100.84;;;23.60;35.42
28267;BME280;15525;45.568;5.448;2023-02-21T13:53:32;98112.38;;;22.83;35.01
28267;BME280;15525;45.568;5.448;2023-02-21T14:00:55;98101.72;;;23.05;35.68
28267;BME280;15525;45.568;5.448;2023-02-21T14:10:50;98080.34;;;22.95;35.66
28267;BME280;15525;45.568;5.448;2023-02-21T14:16:07;98068.81;;;23.76;34.87
28267;BME280;15525;45.568;5.448;2023-02-21T14:18:50;98075.41;;;24.21;34.84
28267;BME280;15525;45.568;5.448;2023-02-21T14:21:29;98065.94;;;24.69;34.16
28267;BME280;15525;45.568;5.448;2023-02-21T14:24:21;98066.50;;;24.97;33.09
28267;BME280;15525;45.568;5.448;2023-02-21T14:29:38;98080.84;;;23.13;35.69
28267;BME280;15525;45.568;5.448;2023-02-21T14:37:15;98063.63;;;23.24;36.36
28267;BME280;15525;45.568;5.448;2023-02-21T14:39:47;98052.59;;;23.67;36.54
28267;BME280;15525;45.568;5.448;2023-02-21T14:42:25;98052.88;;;23.31;36.29
28267;BME280;15525;45.568;5.448;2023-02-21T14:53:59;98062.00;;;23.23;37.12
28267;BME280;15525;45.568;5.448;2023-02-21T15:07:27;98069.03;;;22.54;38.67
28267;BME280;15525;45.568;5.448;2023-02-21T15:10:10;98062.75;;;21.90;39.57
28267;BME280;15525;45.568;5.448;2023-02-21T15:12:39;98068.72;;;21.59;40.09
28267;BME280;15525;45.568;5.448;2023-02-21T15:15:21;98058.56;;;21.24;40.15
28267;BME280;15525;45.568;5.448;2023-02-21T15:18:03;98065.56;;;21.13;40.90
28267;BME280;15525;45.568;5.448;2023-02-21T15:20:30;98069.59;;;21.27;40.67
28267;BME280;15525;45.568;5.448;2023-02-21T15:23:13;98052.19;;;21.20;40.71
28267;BME280;15525;45.568;5.448;2023-02-21T15:25:39;98051.78;;;21.42;40.53
28267;BME280;15525;45.568;5.448;2023-02-21T15:28:19;98043.66;;;21.90;39.56
28267;BME280;15525;45.568;5.448;2023-02-21T15:31:01;98054.09;;;22.00;39.50
28267;BME280;15525;45.568;5.448;2023-02-21T15:33:32;98045.66;;;21.69;39.83
28267;BME280;15525;45.568;5.448;2023-02-21T15:36:01;98047.94;;;21.67;40.19
28267;BME280;15525;45.568;5.448;2023-02-21T15:38:34;98046.91;;;21.47;40.66
28267;BME280;15525;45.568;5.448;2023-02-21T15:41:53;98054.75;;;21.49;40.56
28267;BME280;15525;45.568;5.448;2023-02-21T15:44:02;98061.66;;;22.30;39.31
28267;BME280;15525;45.568;5.448;2023-02-21T15:46:57;98053.44;;;22.42;38.59
28267;BME280;15525;45.568;5.448;2023-02-21T15:49:39;98052.16;;;22.64;38.43
28267;BME280;15525;45.568;5.448;2023-02-21T15:52:06;98048.84;;;22.07;39.57
28267;BME280;15525;45.568;5.448;2023-02-21T15:54:34;98035.88;;;22.16;39.34